sensor_id;sensor_type;location;lat;lon;timestamp;P1;durP1;ratioP1;P2;durP2;ratioP2
6346;SDS011;3206;42.666;23.600;2023-07-13T00:00:34;0.57;;;0.57;;
6346;SDS011;3206;42.666;23.600;2023-07-13T00:03:02;0.55;;;0.50;;
6346;SDS011;3206;42.666;23.600;2023-07-13T00:05:29;0.57;;;0.57;;
6346;SDS011;3206;42.666;23.600;2023-07-13T00:07:57;0.40;;;0.40;;
6346;SDS011;3206;42.666;23.600;2023-07-13T00:10:23;0.65;;;0.60;;
6346;SDS011;3206;42.666;23.600;2023-07-13T00:12:50;1.02;;;0.93;;
6346;SDS011;3206;42.666;23.600;2023-07-13T00:15:21;0.60;;;0.60;;
6346;SDS011;3206;42.666;23.600;2023-07-13T00:17:49;2.00;;;1.17;;
6346;SDS011;3206;42.666;23.600;2023-07-13T00:20:16;1.67;;;0.70;;
6346;SDS011;3206;42.666;23.600;2023-07-13T00:22:43;2.22;;;1.05;;
6346;SDS011;3206;42.666;23.600;2023-07-13T00:25:11;0.40;;;0.40;;
6346;SDS011;3206;42.666;23.600;2023-07-13T00:27:38;1.65;;;0.85;;
6346;SDS011;3206;42.666;23.600;2023-07-13T00:30:05;0.40;;;0.40;;
6346;SDS011;3206;42.666;23.600;2023-07-13T00:32:34;0.47;;;0.47;;
6346;SDS011;3206;42.666;23.600;2023-07-13T00:35:00;0.68;;;0.60;;
6346;SDS011;3206;42.666;23.600;2023-07-13T00:37:28;0.60;;;0.60;;
6346;SDS011;3206;42.666;23.600;2023-07-13T00:39:55;0.30;;;0.30;;
6346;SDS011;3206;42.666;23.600;2023-07-13T00:42:23;0.30;;;0.30;;
6346;SDS011;3206;42.666;23.600;2023-07-13T00:45:06;1.05;;;0.95;;
6346;SDS011;3206;42.666;23.600;2023-07-13T00:47:54;0.55;;;0.55;;
6346;SDS011;3206;42.666;23.600;2023-07-13T00:50:21;0.63;;;0.60;;
6346;SDS011;3206;42.666;23.600;2023-07-13T00:52:50;1.52;;;0.57;;
6346;SDS011;3206;42.666;23.600;2023-07-13T00:55:20;0.82;;;0.82;;
6346;SDS011;3206;42.666;23.600;2023-07-13T00:57:49;0.40;;;0.40;;
6346;SDS011;3206;42.666;23.600;2023-07-13T01:00:16;0.57;;;0.57;;
6346;SDS011;3206;42.666;23.600;2023-07-13T01:02:44;0.77;;;0.60;;
6346;SDS011;3206;42.666;23.600;2023-07-13T01:05:13;0.50;;;0.50;;
6346;SDS011;3206;42.666;23.600;2023-07-13T01:07:41;0.93;;;0.65;;
6346;SDS011;3206;42.666;23.600;2023-07-13T01:10:09;0.68;;;0.68;;
6346;SDS011;3206;42.666;23.600;2023-07-13T01:12:36;0.43;;;0.43;;
6346;SDS011;3206;42.666;23.600;2023-07-13T01:15:05;2.63;;;1.85;;
6346;SDS011;3206;42.666;23.600;2023-07-13T01:17:52;0.50;;;0.50;;
6346;SDS011;3206;42.666;23.600;2023-07-13T01:20:20;0.30;;;0.30;;
6346;SDS011;3206;42.666;23.600;2023-07-13T01:22:48;0.70;;;0.70;;
6346;SDS011;3206;42.666;23.600;2023-07-13T01:25:14;1.13;;;1.02;;
6346;SDS011;3206;42.666;23.600;2023-07-13T01:27:41;0.60;;;0.60;;
6346;SDS011;3206;42.666;23.600;2023-07-13T01:30:08;1.33;;;0.70;;
6346;SDS011;3206;42.666;23.600;2023-07-13T01:32:35;0.30;;;0.30;;
6346;SDS011;3206;42.666;23.600;2023-07-13T01:35:02;0.70;;;0.70;;
6346;SDS011;3206;42.666;23.600;2023-07-13T01:37:29;0.32;;;0.32;;
6346;SDS011;3206;42.666;23.600;2023-07-13T01:39:59;0.52;;;0.52;;
6346;SDS011;3206;42.666;23.600;2023-07-13T01:42:26;0.38;;;0.38;;
6346;SDS011;3206;42.666;23.600;2023-07-13T01:44:54;0.95;;;0.70;;
6346;SDS011;3206;42.666;23.600;2023-07-13T01:47:22;0.50;;;0.50;;
6346;SDS011;3206;42.666;23.600;2023-07-13T01:49:48;0.70;;;0.70;;
6346;SDS011;3206;42.666;23.600;2023-07-13T01:52:17;0.73;;;0.73;;
6346;SDS011;3206;42.666;23.600;2023-07-13T01:54:43;1.05;;;0.90;;
6346;SDS011;3206;42.666;23.600;2023-07-13T01:57:11;3.10;;;1.38;;
6346;SDS011;3206;42.666;23.600;2023-07-13T01:59:38;0.60;;;0.60;;
6346;SDS011;3206;42.666;23.600;2023-07-13T02:02:04;0.95;;;0.73;;
6346;SDS011;3206;42.666;23.600;2023-07-13T02:04:31;0.30;;;0.30;;
6346;SDS011;3206;42.666;23.600;2023-07-13T02:06:58;0.43;;;0.43;;
6346;SDS011;3206;42.666;23.600;2023-07-13T02:09:24;0.40;;;0.40;;
6346;SDS011;3206;42.666;23.600;2023-07-13T02:11:51;0.63;;;0.50;;
6346;SDS011;3206;42.666;23.600;2023-07-13T02:14:19;0.40;;;0.40;;
6346;SDS011;3206;42.666;23.600;2023-07-13T02:16:46;0.70;;;0.70;;
6346;SDS011;3206;42.666;23.600;2023-07-13T02:19:13;0.90;;;0.85;;
6346;SDS011;3206;42.666;23.600;2023-07-13T02:21:40;0.63;;;0.63;;
6346;SDS011;3206;42.666;23.600;2023-07-13T02:24:06;4.45;;;1.85;;
6346;SDS011;3206;42.666;23.600;2023-07-13T02:26:33;0.40;;;0.40;;
6346;SDS011;3206;42.666;23.600;2023-07-13T02:29:01;0.93;;;0.68;;
6346;SDS011;3206;42.666;23.600;2023-07-13T02:31:29;0.35;;;0.35;;
6346;SDS011;3206;42.666;23.600;2023-07-13T02:33:55;0.60;;;0.60;;
6346;SDS011;3206;42.666;23.600;2023-07-13T02:36:22;0.40;;;0.40;;
6346;SDS011;3206;42.666;23.600;2023-07-13T02:38:49;0.47;;;0.47;;
6346;SDS011;3206;42.666;23.600;2023-07-13T02:41:15;0.40;;;0.40;;
6346;SDS011;3206;42.666;23.600;2023-07-13T02:43:42;0.60;;;0.50;;
6346;SDS011;3206;42.666;23.600;2023-07-13T02:46:09;1.65;;;1.20;;
6346;SDS011;3206;42.666;23.600;2023-07-13T02:48:37;0.52;;;0.50;;
6346;SDS011;3206;42.666;23.600;2023-07-13T02:51:05;2.47;;;1.15;;
6346;SDS011;3206;42.666;23.600;2023-07-13T02:53:32;1.08;;;0.80;;
6346;SDS011;3206;42.666;23.600;2023-07-13T02:56:01;0.82;;;0.75;;
6346;SDS011;3206;42.666;23.600;2023-07-13T02:58:27;0.73;;;0.73;;
6346;SDS011;3206;42.666;23.600;2023-07-13T03:00:55;0.60;;;0.60;;
6346;SDS011;3206;42.666;23.600;2023-07-13T03:03:22;0.50;;;0.50;;
6346;SDS011;3206;42.666;23.600;2023-07-13T03:05:57;0.60;;;0.60;;
6346;SDS011;3206;42.666;23.600;2023-07-13T03:08:25;0.38;;;0.38;;
6346;SDS011;3206;42.666;23.600;2023-07-13T03:10:58;0.82;;;0.75;;
6346;SDS011;3206;42.666;23.600;2023-07-13T03:13:25;0.60;;;0.50;;
6346;SDS011;3206;42.666;23.600;2023-07-13T03:15:52;1.02;;;0.68;;
6346;SDS011;3206;42.666;23.600;2023-07-13T03:18:18;1.02;;;0.88;;
6346;SDS011;3206;42.666;23.600;2023-07-13T03:20:45;0.40;;;0.40;;
6346;SDS011;3206;42.666;23.600;2023-07-13T03:23:13;3.30;;;1.30;;
6346;SDS011;3206;42.666;23.600;2023-07-13T03:25:39;0.30;;;0.30;;
6346;SDS011;3206;42.666;23.600;2023-07-13T03:28:06;1.02;;;0.80;;
6346;SDS011;3206;42.666;23.600;2023-07-13T03:30:33;0.40;;;0.40;;
6346;SDS011;3206;42.666;23.600;2023-07-13T03:32:59;0.75;;;0.73;;
6346;SDS011;3206;42.666;23.600;2023-07-13T03:35:26;0.40;;;0.40;;
6346;SDS011;3206;42.666;23.600;2023-07-13T03:37:52;0.50;;;0.40;;
6346;SDS011;3206;42.666;23.600;2023-07-13T03:40:20;0.40;;;0.40;;
6346;SDS011;3206;42.666;23.600;2023-07-13T03:42:47;0.63;;;0.63;;
6346;SDS011;3206;42.666;23.600;2023-07-13T03:45:14;1.65;;;1.08;;
6346;SDS011;3206;42.666;23.600;2023-07-13T03:47:41;0.55;;;0.55;;
6346;SDS011;3206;42.666;23.600;2023-07-13T03:50:07;3.55;;;1.48;;
6346;SDS011;3206;42.666;23.600;2023-07-13T03:52:34;0.80;;;0.60;;
6346;SDS011;3206;42.666;23.600;2023-07-13T03:55:01;0.80;;;0.60;;
6346;SDS011;3206;42.666;23.600;2023-07-13T03:57:29;0.50;;;0.50;;
6346;SDS011;3206;42.666;23.600;2023-07-13T03:59:56;0.50;;;0.50;;
6346;SDS011;3206;42.666;23.600;2023-07-13T04:02:22;0.50;;;0.50;;
6346;SDS011;3206;42.666;23.600;2023-07-13T04:04:49;0.80;;;0.60;;
6346;SDS011;3206;42.666;23.600;2023-07-13T04:07:15;0.50;;;0.50;;
6346;SDS011;3206;42.666;23.600;2023-07-13T04:09:42;1.95;;;0.77;;
6346;SDS011;3206;42.666;23.600;2023-07-13T04:12:08;3.70;;;1.42;;
6346;SDS011;3206;42.666;23.600;2023-07-13T04:14:36;0.40;;;0.40;;
6346;SDS011;3206;42.666;23.600;2023-07-13T04:17:04;0.88;;;0.57;;
6346;SDS011;3206;42.666;23.600;2023-07-13T04:19:31;0.40;;;0.40;;
6346;SDS011;3206;42.666;23.600;2023-07-13T04:21:57;0.80;;;0.70;;
6346;SDS011;3206;42.666;23.600;2023-07-13T04:24:24;3.08;;;1.38;;
6346;SDS011;3206;42.666;23.600;2023-07-13T04:26:51;10.60;;;1.70;;
6346;SDS011;3206;42.666;23.600;2023-07-13T04:29:17;2.25;;;1.38;;
6346;SDS011;3206;42.666;23.600;2023-07-13T04:31:45;1.23;;;1.10;;
6346;SDS011;3206;42.666;23.600;2023-07-13T04:34:13;6.53;;;2.35;;
6346;SDS011;3206;42.666;23.600;2023-07-13T04:36:39;0.47;;;0.43;;
6346;SDS011;3206;42.666;23.600;2023-07-13T04:39:06;0.85;;;0.75;;
6346;SDS011;3206;42.666;23.600;2023-07-13T04:41:33;1.40;;;0.93;;
6346;SDS011;3206;42.666;23.600;2023-07-13T04:44:00;1.33;;;0.98;;
6346;SDS011;3206;42.666;23.600;2023-07-13T04:46:28;1.70;;;0.98;;
6346;SDS011;3206;42.666;23.600;2023-07-13T04:48:55;2.30;;;1.17;;
6346;SDS011;3206;42.666;23.600;2023-07-13T04:51:23;1.65;;;1.20;;
6346;SDS011;3206;42.666;23.600;2023-07-13T04:53:51;8.48;;;1.67;;
6346;SDS011;3206;42.666;23.600;2023-07-13T04:56:18;4.68;;;1.80;;
6346;SDS011;3206;42.666;23.600;2023-07-13T04:58:45;1.27;;;0.65;;
6346;SDS011;3206;42.666;23.600;2023-07-13T05:01:12;0.95;;;0.73;;
6346;SDS011;3206;42.666;23.600;2023-07-13T05:03:39;0.57;;;0.57;;
6346;SDS011;3206;42.666;23.600;2023-07-13T05:06:07;0.68;;;0.55;;
6346;SDS011;3206;42.666;23.600;2023-07-13T05:08:35;0.80;;;0.75;;
6346;SDS011;3206;42.666;23.600;2023-07-13T05:11:03;0.73;;;0.55;;
6346;SDS011;3206;42.666;23.600;2023-07-13T05:13:30;1.00;;;0.70;;
6346;SDS011;3206;42.666;23.600;2023-07-13T05:15:57;0.90;;;0.65;;
6346;SDS011;3206;42.666;23.600;2023-07-13T05:18:25;3.97;;;1.58;;
6346;SDS011;3206;42.666;23.600;2023-07-13T05:20:57;0.30;;;0.30;;
6346;SDS011;3206;42.666;23.600;2023-07-13T05:23:26;5.00;;;1.60;;
6346;SDS011;3206;42.666;23.600;2023-07-13T05:25:52;0.68;;;0.57;;
6346;SDS011;3206;42.666;23.600;2023-07-13T05:28:20;0.55;;;0.40;;
6346;SDS011;3206;42.666;23.600;2023-07-13T05:30:46;0.57;;;0.50;;
6346;SDS011;3206;42.666;23.600;2023-07-13T05:33:14;1.45;;;0.70;;
6346;SDS011;3206;42.666;23.600;2023-07-13T05:35:41;1.40;;;0.82;;
6346;SDS011;3206;42.666;23.600;2023-07-13T05:38:07;0.85;;;0.65;;
6346;SDS011;3206;42.666;23.600;2023-07-13T05:40:35;4.55;;;1.75;;
6346;SDS011;3206;42.666;23.600;2023-07-13T05:43:02;2.00;;;1.10;;
6346;SDS011;3206;42.666;23.600;2023-07-13T05:45:29;3.70;;;1.17;;
6346;SDS011;3206;42.666;23.600;2023-07-13T05:47:56;2.97;;;1.35;;
6346;SDS011;3206;42.666;23.600;2023-07-13T05:50:22;4.88;;;1.05;;
6346;SDS011;3206;42.666;23.600;2023-07-13T05:52:49;3.20;;;1.20;;
6346;SDS011;3206;42.666;23.600;2023-07-13T05:55:17;3.33;;;1.17;;
6346;SDS011;3206;42.666;23.600;2023-07-13T05:57:46;6.57;;;2.05;;
6346;SDS011;3206;42.666;23.600;2023-07-13T06:00:13;5.70;;;1.85;;
6346;SDS011;3206;42.666;23.600;2023-07-13T06:02:41;9.82;;;2.60;;
6346;SDS011;3206;42.666;23.600;2023-07-13T06:05:08;4.40;;;1.38;;
6346;SDS011;3206;42.666;23.600;2023-07-13T06:07:34;5.22;;;1.67;;
6346;SDS011;3206;42.666;23.600;2023-07-13T06:10:01;3.38;;;1.30;;
6346;SDS011;3206;42.666;23.600;2023-07-13T06:12:28;3.47;;;1.30;;
6346;SDS011;3206;42.666;23.600;2023-07-13T06:14:56;2.08;;;1.45;;
6346;SDS011;3206;42.666;23.600;2023-07-13T06:17:23;2.20;;;1.23;;
6346;SDS011;3206;42.666;23.600;2023-07-13T06:19:49;6.03;;;1.77;;
6346;SDS011;3206;42.666;23.600;2023-07-13T06:22:16;2.53;;;1.25;;
6346;SDS011;3206;42.666;23.600;2023-07-13T06:24:43;4.65;;;1.20;;
6346;SDS011;3206;42.666;23.600;2023-07-13T06:27:09;1.90;;;1.27;;
6346;SDS011;3206;42.666;23.600;2023-07-13T06:29:36;2.58;;;1.33;;
6346;SDS011;3206;42.666;23.600;2023-07-13T06:32:04;3.10;;;1.92;;
6346;SDS011;3206;42.666;23.600;2023-07-13T06:34:32;2.25;;;1.20;;
6346;SDS011;3206;42.666;23.600;2023-07-13T06:36:58;5.82;;;2.22;;
6346;SDS011;3206;42.666;23.600;2023-07-13T06:39:25;4.05;;;1.58;;
6346;SDS011;3206;42.666;23.600;2023-07-13T06:41:51;1.90;;;1.38;;
6346;SDS011;3206;42.666;23.600;2023-07-13T06:44:18;2.28;;;1.52;;
6346;SDS011;3206;42.666;23.600;2023-07-13T06:46:45;2.28;;;1.60;;
6346;SDS011;3206;42.666;23.600;2023-07-13T06:49:12;1.38;;;1.25;;
6346;SDS011;3206;42.666;23.600;2023-07-13T06:51:39;1.00;;;0.90;;
6346;SDS011;3206;42.666;23.600;2023-07-13T06:54:06;3.90;;;2.25;;
6346;SDS011;3206;42.666;23.600;2023-07-13T06:56:32;1.85;;;1.42;;
6346;SDS011;3206;42.666;23.600;2023-07-13T06:58:59;7.65;;;2.45;;
6346;SDS011;3206;42.666;23.600;2023-07-13T07:01:26;2.25;;;1.50;;
6346;SDS011;3206;42.666;23.600;2023-07-13T07:03:52;0.80;;;0.70;;
6346;SDS011;3206;42.666;23.600;2023-07-13T07:06:20;1.52;;;1.30;;
6346;SDS011;3206;42.666;23.600;2023-07-13T07:08:49;2.88;;;1.63;;
6346;SDS011;3206;42.666;23.600;2023-07-13T07:11:16;2.42;;;1.52;;
6346;SDS011;3206;42.666;23.600;2023-07-13T07:13:45;2.65;;;1.77;;
6346;SDS011;3206;42.666;23.600;2023-07-13T07:16:11;10.38;;;3.55;;
6346;SDS011;3206;42.666;23.600;2023-07-13T07:18:38;3.05;;;1.58;;
6346;SDS011;3206;42.666;23.600;2023-07-13T07:21:04;6.68;;;2.38;;
6346;SDS011;3206;42.666;23.600;2023-07-13T07:23:32;2.80;;;1.50;;
6346;SDS011;3206;42.666;23.600;2023-07-13T07:25:59;3.53;;;1.85;;
6346;SDS011;3206;42.666;23.600;2023-07-13T07:28:25;4.03;;;2.15;;
6346;SDS011;3206;42.666;23.600;2023-07-13T07:30:53;11.88;;;3.47;;
6346;SDS011;3206;42.666;23.600;2023-07-13T07:33:22;5.72;;;2.17;;
6346;SDS011;3206;42.666;23.600;2023-07-13T07:35:49;7.03;;;1.83;;
6346;SDS011;3206;42.666;23.600;2023-07-13T07:38:15;5.15;;;2.53;;
6346;SDS011;3206;42.666;23.600;2023-07-13T07:40:43;4.05;;;1.45;;
6346;SDS011;3206;42.666;23.600;2023-07-13T07:43:09;3.17;;;1.75;;
6346;SDS011;3206;42.666;23.600;2023-07-13T07:45:38;3.42;;;2.05;;
6346;SDS011;3206;42.666;23.600;2023-07-13T07:48:05;3.92;;;2.03;;
6346;SDS011;3206;42.666;23.600;2023-07-13T07:50:34;1.60;;;1.45;;
6346;SDS011;3206;42.666;23.600;2023-07-13T07:53:01;9.27;;;3.42;;
6346;SDS011;3206;42.666;23.600;2023-07-13T07:55:28;9.52;;;3.03;;
6346;SDS011;3206;42.666;23.600;2023-07-13T07:57:57;6.43;;;2.15;;
6346;SDS011;3206;42.666;23.600;2023-07-13T08:00:23;23.00;;;2.45;;
6346;SDS011;3206;42.666;23.600;2023-07-13T08:02:50;6.05;;;2.30;;
6346;SDS011;3206;42.666;23.600;2023-07-13T08:05:17;4.15;;;2.05;;
6346;SDS011;3206;42.666;23.600;2023-07-13T08:07:43;3.25;;;2.10;;
6346;SDS011;3206;42.666;23.600;2023-07-13T08:10:10;4.15;;;2.10;;
6346;SDS011;3206;42.666;23.600;2023-07-13T08:12:36;9.80;;;2.65;;
6346;SDS011;3206;42.666;23.600;2023-07-13T08:15:06;3.75;;;1.67;;
6346;SDS011;3206;42.666;23.600;2023-07-13T08:17:35;7.10;;;2.97;;
6346;SDS011;3206;42.666;23.600;2023-07-13T08:20:02;5.13;;;2.13;;
6346;SDS011;3206;42.666;23.600;2023-07-13T08:22:30;11.15;;;2.85;;
6346;SDS011;3206;42.666;23.600;2023-07-13T08:24:56;2.47;;;1.48;;
6346;SDS011;3206;42.666;23.600;2023-07-13T08:27:23;3.30;;;1.90;;
6346;SDS011;3206;42.666;23.600;2023-07-13T08:29:50;10.90;;;3.25;;
6346;SDS011;3206;42.666;23.600;2023-07-13T08:32:19;10.40;;;2.85;;
6346;SDS011;3206;42.666;23.600;2023-07-13T08:34:47;9.18;;;2.30;;
6346;SDS011;3206;42.666;23.600;2023-07-13T08:37:15;5.88;;;2.53;;
6346;SDS011;3206;42.666;23.600;2023-07-13T08:39:41;6.13;;;2.17;;
6346;SDS011;3206;42.666;23.600;2023-07-13T08:42:17;2.08;;;0.90;;
6346;SDS011;3206;42.666;23.600;2023-07-13T08:44:57;3.30;;;2.15;;
6346;SDS011;3206;42.666;23.600;2023-07-13T08:47:35;3.85;;;1.65;;
6346;SDS011;3206;42.666;23.600;2023-07-13T08:50:08;6.90;;;1.65;;
6346;SDS011;3206;42.666;23.600;2023-07-13T08:52:38;2.13;;;1.02;;
6346;SDS011;3206;42.666;23.600;2023-07-13T08:55:09;9.40;;;2.50;;
6346;SDS011;3206;42.666;23.600;2023-07-13T08:57:40;3.70;;;1.40;;
6346;SDS011;3206;42.666;23.600;2023-07-13T09:00:10;5.05;;;1.83;;
6346;SDS011;3206;42.666;23.600;2023-07-13T09:02:42;4.80;;;1.88;;
6346;SDS011;3206;42.666;23.600;2023-07-13T09:05:13;2.55;;;1.40;;
6346;SDS011;3206;42.666;23.600;2023-07-13T09:07:47;3.45;;;1.30;;
6346;SDS011;3206;42.666;23.600;2023-07-13T09:10:36;3.63;;;1.35;;
6346;SDS011;3206;42.666;23.600;2023-07-13T09:13:14;6.03;;;1.90;;
6346;SDS011;3206;42.666;23.600;2023-07-13T09:15:52;20.38;;;3.92;;
6346;SDS011;3206;42.666;23.600;2023-07-13T09:18:21;7.22;;;2.28;;
6346;SDS011;3206;42.666;23.600;2023-07-13T09:20:53;6.57;;;1.83;;
6346;SDS011;3206;42.666;23.600;2023-07-13T09:23:23;4.55;;;1.88;;
6346;SDS011;3206;42.666;23.600;2023-07-13T09:25:51;5.25;;;1.95;;
6346;SDS011;3206;42.666;23.600;2023-07-13T09:28:23;3.35;;;1.83;;
6346;SDS011;3206;42.666;23.600;2023-07-13T09:30:52;4.93;;;1.92;;
6346;SDS011;3206;42.666;23.600;2023-07-13T09:33:25;6.63;;;2.03;;
6346;SDS011;3206;42.666;23.600;2023-07-13T09:35:54;7.35;;;2.47;;
6346;SDS011;3206;42.666;23.600;2023-07-13T09:38:22;16.10;;;3.60;;
6346;SDS011;3206;42.666;23.600;2023-07-13T09:40:58;4.80;;;2.00;;
6346;SDS011;3206;42.666;23.600;2023-07-13T09:43:34;4.50;;;1.35;;
6346;SDS011;3206;42.666;23.600;2023-07-13T09:46:00;5.10;;;1.75;;
6346;SDS011;3206;42.666;23.600;2023-07-13T09:48:34;8.45;;;1.77;;
6346;SDS011;3206;42.666;23.600;2023-07-13T09:51:06;9.07;;;2.08;;
6346;SDS011;3206;42.666;23.600;2023-07-13T09:53:43;14.45;;;2.72;;
6346;SDS011;3206;42.666;23.600;2023-07-13T09:56:18;13.15;;;2.75;;
6346;SDS011;3206;42.666;23.600;2023-07-13T09:58:46;9.40;;;2.03;;
6346;SDS011;3206;42.666;23.600;2023-07-13T10:01:13;6.68;;;1.67;;
6346;SDS011;3206;42.666;23.600;2023-07-13T10:03:51;21.70;;;3.33;;
6346;SDS011;3206;42.666;23.600;2023-07-13T10:06:19;5.90;;;1.77;;
6346;SDS011;3206;42.666;23.600;2023-07-13T10:08:48;11.52;;;2.38;;
6346;SDS011;3206;42.666;23.600;2023-07-13T10:11:17;3.30;;;0.90;;
6346;SDS011;3206;42.666;23.600;2023-07-13T10:13:46;15.95;;;2.47;;
6346;SDS011;3206;42.666;23.600;2023-07-13T10:16:17;3.22;;;1.40;;
6346;SDS011;3206;42.666;23.600;2023-07-13T10:18:46;21.25;;;2.80;;
6346;SDS011;3206;42.666;23.600;2023-07-13T10:21:15;9.23;;;1.75;;
6346;SDS011;3206;42.666;23.600;2023-07-13T10:23:45;23.98;;;3.13;;
6346;SDS011;3206;42.666;23.600;2023-07-13T10:26:17;6.82;;;1.52;;
6346;SDS011;3206;42.666;23.600;2023-07-13T10:28:47;6.75;;;1.60;;
6346;SDS011;3206;42.666;23.600;2023-07-13T10:31:18;3.42;;;1.10;;
6346;SDS011;3206;42.666;23.600;2023-07-13T10:33:47;8.45;;;1.67;;
6346;SDS011;3206;42.666;23.600;2023-07-13T10:36:16;8.95;;;1.85;;
6346;SDS011;3206;42.666;23.600;2023-07-13T10:38:48;12.75;;;2.45;;
6346;SDS011;3206;42.666;23.600;2023-07-13T10:41:18;11.48;;;2.08;;
6346;SDS011;3206;42.666;23.600;2023-07-13T10:43:47;21.40;;;2.88;;
6346;SDS011;3206;42.666;23.600;2023-07-13T10:46:18;18.95;;;2.97;;
6346;SDS011;3206;42.666;23.600;2023-07-13T10:48:54;7.82;;;1.58;;
6346;SDS011;3206;42.666;23.600;2023-07-13T10:51:23;3.47;;;1.40;;
6346;SDS011;3206;42.666;23.600;2023-07-13T10:56:38;4.30;;;1.42;;
6346;SDS011;3206;42.666;23.600;2023-07-13T10:59:09;35.28;;;4.55;;
6346;SDS011;3206;42.666;23.600;2023-07-13T11:01:40;6.65;;;1.75;;
6346;SDS011;3206;42.666;23.600;2023-07-13T11:04:14;9.00;;;2.13;;
6346;SDS011;3206;42.666;23.600;2023-07-13T11:06:42;8.95;;;2.35;;
6346;SDS011;3206;42.666;23.600;2023-07-13T11:12:08;10.60;;;2.30;;
6346;SDS011;3206;42.666;23.600;2023-07-13T11:15:01;33.60;;;4.00;;
6346;SDS011;3206;42.666;23.600;2023-07-13T11:17:36;18.23;;;3.30;;
6346;SDS011;3206;42.666;23.600;2023-07-13T11:20:23;23.17;;;3.28;;
6346;SDS011;3206;42.666;23.600;2023-07-13T11:23:07;10.45;;;2.00;;
6346;SDS011;3206;42.666;23.600;2023-07-13T11:25:45;3.75;;;1.50;;
6346;SDS011;3206;42.666;23.600;2023-07-13T11:28:17;11.93;;;2.60;;
6346;SDS011;3206;42.666;23.600;2023-07-13T11:30:49;16.45;;;2.40;;
6346;SDS011;3206;42.666;23.600;2023-07-13T11:33:28;7.82;;;1.70;;
6346;SDS011;3206;42.666;23.600;2023-07-13T11:36:16;12.38;;;2.35;;
6346;SDS011;3206;42.666;23.600;2023-07-13T11:38:49;14.00;;;2.83;;
6346;SDS011;3206;42.666;23.600;2023-07-13T11:41:25;9.23;;;2.03;;
6346;SDS011;3206;42.666;23.600;2023-07-13T11:43:54;11.77;;;2.42;;
6346;SDS011;3206;42.666;23.600;2023-07-13T11:46:23;3.92;;;1.50;;
6346;SDS011;3206;42.666;23.600;2023-07-13T11:48:51;27.35;;;3.40;;
6346;SDS011;3206;42.666;23.600;2023-07-13T11:51:20;10.07;;;2.45;;
6346;SDS011;3206;42.666;23.600;2023-07-13T11:53:50;17.98;;;2.50;;
6346;SDS011;3206;42.666;23.600;2023-07-13T11:56:18;6.75;;;1.75;;
6346;SDS011;3206;42.666;23.600;2023-07-13T11:58:47;19.67;;;2.80;;
6346;SDS011;3206;42.666;23.600;2023-07-13T12:01:17;18.08;;;2.53;;
6346;SDS011;3206;42.666;23.600;2023-07-13T12:03:47;14.75;;;2.35;;
6346;SDS011;3206;42.666;23.600;2023-07-13T12:06:23;14.55;;;2.50;;
6346;SDS011;3206;42.666;23.600;2023-07-13T12:08:55;5.82;;;1.48;;
6346;SDS011;3206;42.666;23.600;2023-07-13T12:11:23;7.28;;;1.75;;
6346;SDS011;3206;42.666;23.600;2023-07-13T12:13:50;18.40;;;2.25;;
6346;SDS011;3206;42.666;23.600;2023-07-13T12:16:17;14.63;;;2.20;;
6346;SDS011;3206;42.666;23.600;2023-07-13T12:18:51;20.20;;;2.65;;
6346;SDS011;3206;42.666;23.600;2023-07-13T12:21:19;15.10;;;2.53;;
6346;SDS011;3206;42.666;23.600;2023-07-13T12:23:52;13.18;;;1.75;;
6346;SDS011;3206;42.666;23.600;2023-07-13T12:26:19;13.80;;;2.25;;
6346;SDS011;3206;42.666;23.600;2023-07-13T12:28:47;1.50;;;1.40;;
6346;SDS011;3206;42.666;23.600;2023-07-13T12:31:25;25.20;;;3.15;;
6346;SDS011;3206;42.666;23.600;2023-07-13T12:33:57;6.60;;;1.98;;
6346;SDS011;3206;42.666;23.600;2023-07-13T12:36:26;25.08;;;2.95;;
6346;SDS011;3206;42.666;23.600;2023-07-13T12:38:58;12.50;;;2.08;;
6346;SDS011;3206;42.666;23.600;2023-07-13T12:41:29;26.25;;;2.97;;
6346;SDS011;3206;42.666;23.600;2023-07-13T12:43:56;4.93;;;1.55;;
6346;SDS011;3206;42.666;23.600;2023-07-13T12:46:24;9.73;;;1.83;;
6346;SDS011;3206;42.666;23.600;2023-07-13T12:48:53;7.43;;;1.95;;
6346;SDS011;3206;42.666;23.600;2023-07-13T12:51:21;9.95;;;1.67;;
6346;SDS011;3206;42.666;23.600;2023-07-13T12:53:57;6.40;;;1.35;;
6346;SDS011;3206;42.666;23.600;2023-07-13T12:56:32;14.98;;;2.35;;
6346;SDS011;3206;42.666;23.600;2023-07-13T12:59:01;11.50;;;1.95;;
6346;SDS011;3206;42.666;23.600;2023-07-13T13:01:32;9.80;;;1.90;;
6346;SDS011;3206;42.666;23.600;2023-07-13T13:04:02;4.70;;;1.38;;
6346;SDS011;3206;42.666;23.600;2023-07-13T13:06:31;4.22;;;1.00;;
6346;SDS011;3206;42.666;23.600;2023-07-13T13:09:03;8.18;;;1.65;;
6346;SDS011;3206;42.666;23.600;2023-07-13T13:11:35;10.15;;;1.50;;
6346;SDS011;3206;42.666;23.600;2023-07-13T13:14:02;4.25;;;1.10;;
6346;SDS011;3206;42.666;23.600;2023-07-13T13:16:30;18.35;;;2.28;;
6346;SDS011;3206;42.666;23.600;2023-07-13T13:18:59;8.20;;;1.52;;
6346;SDS011;3206;42.666;23.600;2023-07-13T13:21:27;12.35;;;1.75;;
6346;SDS011;3206;42.666;23.600;2023-07-13T13:23:54;13.27;;;2.35;;
6346;SDS011;3206;42.666;23.600;2023-07-13T13:26:22;7.65;;;1.90;;
6346;SDS011;3206;42.666;23.600;2023-07-13T13:28:49;27.77;;;3.03;;
6346;SDS011;3206;42.666;23.600;2023-07-13T13:31:16;6.97;;;1.95;;
6346;SDS011;3206;42.666;23.600;2023-07-13T13:33:43;18.83;;;2.38;;
6346;SDS011;3206;42.666;23.600;2023-07-13T13:36:15;7.05;;;1.38;;
6346;SDS011;3206;42.666;23.600;2023-07-13T13:38:43;14.50;;;2.17;;
6346;SDS011;3206;42.666;23.600;2023-07-13T13:41:10;12.88;;;2.50;;
6346;SDS011;3206;42.666;23.600;2023-07-13T13:43:40;10.40;;;2.05;;
6346;SDS011;3206;42.666;23.600;2023-07-13T13:46:17;5.50;;;1.58;;
6346;SDS011;3206;42.666;23.600;2023-07-13T13:48:45;10.18;;;2.00;;
6346;SDS011;3206;42.666;23.600;2023-07-13T13:51:13;3.75;;;1.45;;
6346;SDS011;3206;42.666;23.600;2023-07-13T13:53:42;11.35;;;2.42;;
6346;SDS011;3206;42.666;23.600;2023-07-13T13:56:08;6.43;;;1.92;;
6346;SDS011;3206;42.666;23.600;2023-07-13T13:58:35;16.98;;;2.40;;
6346;SDS011;3206;42.666;23.600;2023-07-13T14:01:05;36.50;;;4.28;;
6346;SDS011;3206;42.666;23.600;2023-07-13T14:03:39;22.60;;;3.13;;
6346;SDS011;3206;42.666;23.600;2023-07-13T14:06:07;28.08;;;2.97;;
6346;SDS011;3206;42.666;23.600;2023-07-13T14:08:36;12.95;;;2.25;;
6346;SDS011;3206;42.666;23.600;2023-07-13T14:11:03;30.80;;;3.25;;
6346;SDS011;3206;42.666;23.600;2023-07-13T14:13:30;15.93;;;2.40;;
6346;SDS011;3206;42.666;23.600;2023-07-13T14:16:01;28.98;;;3.38;;
6346;SDS011;3206;42.666;23.600;2023-07-13T14:18:29;13.35;;;2.00;;
6346;SDS011;3206;42.666;23.600;2023-07-13T14:20:56;13.10;;;1.92;;
6346;SDS011;3206;42.666;23.600;2023-07-13T14:23:22;7.50;;;1.63;;
6346;SDS011;3206;42.666;23.600;2023-07-13T14:25:49;25.30;;;2.90;;
6346;SDS011;3206;42.666;23.600;2023-07-13T14:28:18;28.40;;;3.08;;
6346;SDS011;3206;42.666;23.600;2023-07-13T14:30:47;6.65;;;1.58;;
6346;SDS011;3206;42.666;23.600;2023-07-13T14:33:14;32.83;;;3.38;;
6346;SDS011;3206;42.666;23.600;2023-07-13T14:35:42;5.47;;;1.40;;
6346;SDS011;3206;42.666;23.600;2023-07-13T14:38:10;19.98;;;2.53;;
6346;SDS011;3206;42.666;23.600;2023-07-13T14:40:39;9.32;;;1.55;;
6346;SDS011;3206;42.666;23.600;2023-07-13T14:43:07;31.08;;;3.05;;
6346;SDS011;3206;42.666;23.600;2023-07-13T14:45:37;24.83;;;2.85;;
6346;SDS011;3206;42.666;23.600;2023-07-13T14:48:09;10.02;;;1.85;;
6346;SDS011;3206;42.666;23.600;2023-07-13T14:50:45;12.52;;;2.33;;
6346;SDS011;3206;42.666;23.600;2023-07-13T14:53:12;24.95;;;2.85;;
6346;SDS011;3206;42.666;23.600;2023-07-13T14:55:39;18.40;;;2.42;;
6346;SDS011;3206;42.666;23.600;2023-07-13T14:58:07;7.05;;;1.40;;
6346;SDS011;3206;42.666;23.600;2023-07-13T15:00:34;50.05;;;4.43;;
6346;SDS011;3206;42.666;23.600;2023-07-13T15:03:02;12.80;;;2.05;;
6346;SDS011;3206;42.666;23.600;2023-07-13T15:05:31;7.68;;;1.60;;
6346;SDS011;3206;42.666;23.600;2023-07-13T15:08:00;13.65;;;2.42;;
6346;SDS011;3206;42.666;23.600;2023-07-13T15:10:30;14.10;;;2.20;;
6346;SDS011;3206;42.666;23.600;2023-07-13T15:12:59;10.02;;;1.85;;